sensor_id;sensor_type;location;lat;lon;timestamp;temperature;humidity
31307;DHT22;17935;51.120;13.132;2024-01-27T00:00:25;4.10;99.90
31307;DHT22;17935;51.120;13.132;2024-01-27T00:02:51;4.10;99.90
31307;DHT22;17935;51.120;13.132;2024-01-27T00:05:16;4.10;99.90
31307;DHT22;17935;51.120;13.132;2024-01-27T00:07:42;4.00;99.90
31307;DHT22;17935;51.120;13.132;2024-01-27T00:10:07;4.10;99.90
31307;DHT22;17935;51.120;13.132;2024-01-27T00:12:33;4.10;99.90
31307;DHT22;17935;51.120;13.132;2024-01-27T00:14:58;4.00;99.90
31307;DHT22;17935;51.120;13.132;2024-01-27T00:17:24;4.10;99.90
31307;DHT22;17935;51.120;13.132;2024-01-27T00:19:51;4.10;99.90
31307;DHT22;17935;51.120;13.132;2024-01-27T00:22:17;4.10;99.90
31307;DHT22;17935;51.120;13.132;2024-01-27T00:24:43;4.10;99.90
31307;DHT22;17935;51.120;13.132;2024-01-27T00:27:08;4.10;99.90
31307;DHT22;17935;51.120;13.132;2024-01-27T00:29:34;4.00;99.90
31307;DHT22;17935;51.120;13.132;2024-01-27T00:31:59;4.00;99.90
31307;DHT22;17935;51.120;13.132;2024-01-27T00:34:25;4.10;99.90
31307;DHT22;17935;51.120;13.132;2024-01-27T00:36:51;4.00;99.90
31307;DHT22;17935;51.120;13.132;2024-01-27T00:39:16;4.10;99.90
31307;DHT22;17935;51.120;13.132;2024-01-27T00:41:42;4.10;99.90
31307;DHT22;17935;51.120;13.132;2024-01-27T00:44:08;4.20;99.90
31307;DHT22;17935;51.120;13.132;2024-01-27T00:46:34;4.20;99.90
31307;DHT22;17935;51.120;13.132;2024-01-27T00:48:59;4.10;99.90
31307;DHT22;17935;51.120;13.132;2024-01-27T00:51:25;4.10;99.90
31307;DHT22;17935;51.120;13.132;2024-01-27T00:53:50;4.10;99.90
31307;DHT22;17935;51.120;13.132;2024-01-27T00:56:15;4.10;99.90
31307;DHT22;17935;51.120;13.132;2024-01-27T00:58:41;4.20;99.90
31307;DHT22;17935;51.120;13.132;2024-01-27T01:01:06;4.20;99.90
31307;DHT22;17935;51.120;13.132;2024-01-27T01:03:32;4.20;99.90
31307;DHT22;17935;51.120;13.132;2024-01-27T01:05:57;4.20;99.90
31307;DHT22;17935;51.120;13.132;2024-01-27T01:08:23;4.20;99.90
31307;DHT22;17935;51.120;13.132;2024-01-27T01:10:48;4.10;99.90
31307;DHT22;17935;51.120;13.132;2024-01-27T01:13:14;4.10;99.90
31307;DHT22;17935;51.120;13.132;2024-01-27T01:15:39;4.10;99.90
31307;DHT22;17935;51.120;13.132;2024-01-27T01:18:05;4.00;99.90
31307;DHT22;17935;51.120;13.132;2024-01-27T01:20:30;4.00;99.90
31307;DHT22;17935;51.120;13.132;2024-01-27T01:22:57;3.90;99.90
31307;DHT22;17935;51.120;13.132;2024-01-27T01:25:23;3.80;99.90
31307;DHT22;17935;51.120;13.132;2024-01-27T01:27:48;3.80;99.90
31307;DHT22;17935;51.120;13.132;2024-01-27T01:30:18;3.90;99.90
31307;DHT22;17935;51.120;13.132;2024-01-27T01:32:43;4.00;99.90
31307;DHT22;17935;51.120;13.132;2024-01-27T01:35:12;4.00;99.90
31307;DHT22;17935;51.120;13.132;2024-01-27T01:37:38;3.90;99.90
31307;DHT22;17935;51.120;13.132;2024-01-27T01:40:03;3.80;99.90
31307;DHT22;17935;51.120;13.132;2024-01-27T01:42:29;3.70;99.90
31307;DHT22;17935;51.120;13.132;2024-01-27T01:44:55;3.70;99.90
31307;DHT22;17935;51.120;13.132;2024-01-27T01:47:20;3.60;99.90
31307;DHT22;17935;51.120;13.132;2024-01-27T01:49:47;3.60;99.90
31307;DHT22;17935;51.120;13.132;2024-01-27T01:52:13;3.60;99.90
31307;DHT22;17935;51.120;13.132;2024-01-27T01:54:51;3.70;99.90
31307;DHT22;17935;51.120;13.132;2024-01-27T01:57:17;3.60;99.90
31307;DHT22;17935;51.120;13.132;2024-01-27T01:59:42;3.60;99.90
31307;DHT22;17935;51.120;13.132;2024-01-27T02:02:08;3.50;99.90
31307;DHT22;17935;51.120;13.132;2024-01-27T02:04:43;3.50;99.90
31307;DHT22;17935;51.120;13.132;2024-01-27T02:07:09;3.40;99.90
31307;DHT22;17935;51.120;13.132;2024-01-27T02:09:34;3.40;99.90
31307;DHT22;17935;51.120;13.132;2024-01-27T02:12:00;3.30;99.90
31307;DHT22;17935;51.120;13.132;2024-01-27T02:14:26;3.20;99.90
31307;DHT22;17935;51.120;13.132;2024-01-27T02:16:55;3.10;99.90
31307;DHT22;17935;51.120;13.132;2024-01-27T02:19:21;3.10;99.90
31307;DHT22;17935;51.120;13.132;2024-01-27T02:21:46;3.10;99.90
31307;DHT22;17935;51.120;13.132;2024-01-27T02:24:12;3.10;99.90
31307;DHT22;17935;51.120;13.132;2024-01-27T02:26:37;3.10;99.90
31307;DHT22;17935;51.120;13.132;2024-01-27T02:29:03;3.10;99.90
31307;DHT22;17935;51.120;13.132;2024-01-27T02:31:28;3.00;99.90
31307;DHT22;17935;51.120;13.132;2024-01-27T02:33:54;3.00;99.90
31307;DHT22;17935;51.120;13.132;2024-01-27T02:36:19;2.80;99.90
31307;DHT22;17935;51.120;13.132;2024-01-27T02:38:45;2.80;99.90
31307;DHT22;17935;51.120;13.132;2024-01-27T02:41:10;2.80;99.90
31307;DHT22;17935;51.120;13.132;2024-01-27T02:43:37;2.70;99.90
31307;DHT22;17935;51.120;13.132;2024-01-27T02:46:03;2.70;99.90
31307;DHT22;17935;51.120;13.132;2024-01-27T02:48:28;2.80;99.90
31307;DHT22;17935;51.120;13.132;2024-01-27T02:50:54;2.80;99.90
31307;DHT22;17935;51.120;13.132;2024-01-27T02:53:19;2.90;99.90
31307;DHT22;17935;51.120;13.132;2024-01-27T02:55:45;2.90;99.90
31307;DHT22;17935;51.120;13.132;2024-01-27T02:58:10;2.80;99.90
31307;DHT22;17935;51.120;13.132;2024-01-27T03:00:36;2.80;99.90
31307;DHT22;17935;51.120;13.132;2024-01-27T03:03:01;2.80;99.90
31307;DHT22;17935;51.120;13.132;2024-01-27T03:05:27;2.70;99.90
31307;DHT22;17935;51.120;13.132;2024-01-27T03:07:52;2.70;99.90
31307;DHT22;17935;51.120;13.132;2024-01-27T03:10:18;2.70;99.90
31307;DHT22;17935;51.120;13.132;2024-01-27T03:12:43;2.70;99.90
31307;DHT22;17935;51.120;13.132;2024-01-27T03:15:09;2.70;99.90
31307;DHT22;17935;51.120;13.132;2024-01-27T03:17:34;2.70;99.90
31307;DHT22;17935;51.120;13.132;2024-01-27T03:19:59;2.70;99.90
31307;DHT22;17935;51.120;13.132;2024-01-27T03:22:25;2.60;99.90
31307;DHT22;17935;51.120;13.132;2024-01-27T03:24:50;2.60;99.90
31307;DHT22;17935;51.120;13.132;2024-01-27T03:27:18;2.60;99.90
31307;DHT22;17935;51.120;13.132;2024-01-27T03:29:43;2.60;99.90
31307;DHT22;17935;51.120;13.132;2024-01-27T03:32:09;2.60;99.90
31307;DHT22;17935;51.120;13.132;2024-01-27T03:34:34;2.70;99.90
31307;DHT22;17935;51.120;13.132;2024-01-27T03:37:00;2.80;99.90
31307;DHT22;17935;51.120;13.132;2024-01-27T03:39:25;2.90;99.90
31307;DHT22;17935;51.120;13.132;2024-01-27T03:41:51;3.00;99.90
31307;DHT22;17935;51.120;13.132;2024-01-27T03:44:16;3.00;99.90
31307;DHT22;17935;51.120;13.132;2024-01-27T03:46:41;3.10;99.90
31307;DHT22;17935;51.120;13.132;2024-01-27T03:49:07;3.10;99.90
31307;DHT22;17935;51.120;13.132;2024-01-27T03:51:32;3.10;99.90
31307;DHT22;17935;51.120;13.132;2024-01-27T03:53:58;3.10;99.90
31307;DHT22;17935;51.120;13.132;2024-01-27T03:56:23;3.10;99.90
31307;DHT22;17935;51.120;13.132;2024-01-27T03:58:49;3.00;99.90
31307;DHT22;17935;51.120;13.132;2024-01-27T04:01:14;2.90;99.90
31307;DHT22;17935;51.120;13.132;2024-01-27T04:03:40;3.00;99.90
31307;DHT22;17935;51.120;13.132;2024-01-27T04:06:05;3.00;99.90
31307;DHT22;17935;51.120;13.132;2024-01-27T04:08:31;3.00;99.90
31307;DHT22;17935;51.120;13.132;2024-01-27T04:10:56;3.10;99.90
31307;DHT22;17935;51.120;13.132;2024-01-27T04:13:22;3.10;99.90
31307;DHT22;17935;51.120;13.132;2024-01-27T04:15:47;3.10;99.90
31307;DHT22;17935;51.120;13.132;2024-01-27T04:18:13;3.00;99.90
31307;DHT22;17935;51.120;13.132;2024-01-27T04:20:39;3.00;99.90
31307;DHT22;17935;51.120;13.132;2024-01-27T04:23:04;2.90;99.90
31307;DHT22;17935;51.120;13.132;2024-01-27T04:25:30;2.80;99.90
31307;DHT22;17935;51.120;13.132;2024-01-27T04:27:55;2.80;99.90
31307;DHT22;17935;51.120;13.132;2024-01-27T04:30:21;2.70;99.90
31307;DHT22;17935;51.120;13.132;2024-01-27T04:32:52;2.70;99.90
31307;DHT22;17935;51.120;13.132;2024-01-27T04:35:17;2.60;99.90
31307;DHT22;17935;51.120;13.132;2024-01-27T04:37:43;2.50;99.90
31307;DHT22;17935;51.120;13.132;2024-01-27T04:40:10;2.50;99.90
31307;DHT22;17935;51.120;13.132;2024-01-27T04:42:39;2.50;99.90
31307;DHT22;17935;51.120;13.132;2024-01-27T04:45:05;2.40;99.90
31307;DHT22;17935;51.120;13.132;2024-01-27T04:47:31;2.40;99.90
31307;DHT22;17935;51.120;13.132;2024-01-27T04:49:56;2.40;99.90
31307;DHT22;17935;51.120;13.132;2024-01-27T04:52:25;2.40;99.90
31307;DHT22;17935;51.120;13.132;2024-01-27T04:54:51;2.40;99.90
31307;DHT22;17935;51.120;13.132;2024-01-27T04:57:16;2.40;99.90
31307;DHT22;17935;51.120;13.132;2024-01-27T04:59:42;2.40;99.90
31307;DHT22;17935;51.120;13.132;2024-01-27T05:02:08;2.30;99.90
31307;DHT22;17935;51.120;13.132;2024-01-27T05:04:33;2.40;99.90
31307;DHT22;17935;51.120;13.132;2024-01-27T05:06:59;2.40;99.90
31307;DHT22;17935;51.120;13.132;2024-01-27T05:09:24;2.30;99.90
31307;DHT22;17935;51.120;13.132;2024-01-27T05:11:50;2.30;99.90
31307;DHT22;17935;51.120;13.132;2024-01-27T05:14:19;2.30;99.90
31307;DHT22;17935;51.120;13.132;2024-01-27T05:16:44;2.20;99.90
31307;DHT22;17935;51.120;13.132;2024-01-27T05:19:13;2.20;99.90
31307;DHT22;17935;51.120;13.132;2024-01-27T05:21:38;2.30;99.90
31307;DHT22;17935;51.120;13.132;2024-01-27T05:24:04;2.20;99.90
31307;DHT22;17935;51.120;13.132;2024-01-27T05:26:29;2.30;99.90
31307;DHT22;17935;51.120;13.132;2024-01-27T05:28:55;2.40;99.90
31307;DHT22;17935;51.120;13.132;2024-01-27T05:31:21;2.50;99.90
31307;DHT22;17935;51.120;13.132;2024-01-27T05:33:46;2.60;99.90
31307;DHT22;17935;51.120;13.132;2024-01-27T05:36:12;2.60;99.90
31307;DHT22;17935;51.120;13.132;2024-01-27T05:38:37;2.50;99.90
31307;DHT22;17935;51.120;13.132;2024-01-27T05:41:03;2.50;99.90
31307;DHT22;17935;51.120;13.132;2024-01-27T05:43:28;2.40;99.90
31307;DHT22;17935;51.120;13.132;2024-01-27T05:45:54;2.30;99.90
31307;DHT22;17935;51.120;13.132;2024-01-27T05:48:20;2.30;99.90
31307;DHT22;17935;51.120;13.132;2024-01-27T05:50:54;2.30;99.90
31307;DHT22;17935;51.120;13.132;2024-01-27T05:53:22;2.30;99.90
31307;DHT22;17935;51.120;13.132;2024-01-27T05:55:48;2.30;99.90
31307;DHT22;17935;51.120;13.132;2024-01-27T05:58:13;2.30;99.90
31307;DHT22;17935;51.120;13.132;2024-01-27T06:00:39;2.40;99.90
31307;DHT22;17935;51.120;13.132;2024-01-27T06:03:04;2.50;99.90
31307;DHT22;17935;51.120;13.132;2024-01-27T06:05:30;2.50;99.90
31307;DHT22;17935;51.120;13.132;2024-01-27T06:07:55;2.40;99.90
31307;DHT22;17935;51.120;13.132;2024-01-27T06:10:21;2.40;99.90
31307;DHT22;17935;51.120;13.132;2024-01-27T06:12:47;2.40;99.90
31307;DHT22;17935;51.120;13.132;2024-01-27T06:15:13;2.30;99.90
31307;DHT22;17935;51.120;13.132;2024-01-27T06:17:40;2.30;99.90
31307;DHT22;17935;51.120;13.132;2024-01-27T06:20:06;2.30;99.90
31307;DHT22;17935;51.120;13.132;2024-01-27T06:22:31;2.30;99.90
31307;DHT22;17935;51.120;13.132;2024-01-27T06:24:58;2.40;99.90
31307;DHT22;17935;51.120;13.132;2024-01-27T06:27:24;2.40;99.90
31307;DHT22;17935;51.120;13.132;2024-01-27T06:29:49;2.60;99.90
31307;DHT22;17935;51.120;13.132;2024-01-27T06:32:14;2.60;99.90
31307;DHT22;17935;51.120;13.132;2024-01-27T06:34:41;2.60;99.90
31307;DHT22;17935;51.120;13.132;2024-01-27T06:37:12;2.60;99.90
31307;DHT22;17935;51.120;13.132;2024-01-27T06:39:37;2.70;99.90
31307;DHT22;17935;51.120;13.132;2024-01-27T06:42:03;2.60;99.90
31307;DHT22;17935;51.120;13.132;2024-01-27T06:44:32;2.70;99.90
31307;DHT22;17935;51.120;13.132;2024-01-27T06:46:57;2.80;99.90
31307;DHT22;17935;51.120;13.132;2024-01-27T06:49:23;2.80;99.90
31307;DHT22;17935;51.120;13.132;2024-01-27T06:51:48;2.90;99.90
31307;DHT22;17935;51.120;13.132;2024-01-27T06:54:14;3.00;99.90
31307;DHT22;17935;51.120;13.132;2024-01-27T06:56:39;3.10;99.90
31307;DHT22;17935;51.120;13.132;2024-01-27T06:59:05;3.20;99.90
31307;DHT22;17935;51.120;13.132;2024-01-27T07:01:37;3.20;99.90
31307;DHT22;17935;51.120;13.132;2024-01-27T07:04:03;3.30;99.90
31307;DHT22;17935;51.120;13.132;2024-01-27T07:06:29;3.40;99.90
31307;DHT22;17935;51.120;13.132;2024-01-27T07:08:54;3.40;99.90
31307;DHT22;17935;51.120;13.132;2024-01-27T07:11:20;3.50;99.90
31307;DHT22;17935;51.120;13.132;2024-01-27T07:13:45;3.40;99.90
31307;DHT22;17935;51.120;13.132;2024-01-27T07:16:14;3.40;99.90
31307;DHT22;17935;51.120;13.132;2024-01-27T07:18:40;3.40;99.90
31307;DHT22;17935;51.120;13.132;2024-01-27T07:21:05;3.40;99.90
31307;DHT22;17935;51.120;13.132;2024-01-27T07:23:31;3.40;99.90
31307;DHT22;17935;51.120;13.132;2024-01-27T07:25:56;3.20;99.90
31307;DHT22;17935;51.120;13.132;2024-01-27T07:28:28;3.20;99.90
31307;DHT22;17935;51.120;13.132;2024-01-27T07:30:53;3.30;99.90
31307;DHT22;17935;51.120;13.132;2024-01-27T07:33:19;3.40;99.90
31307;DHT22;17935;51.120;13.132;2024-01-27T07:35:44;3.50;99.90
31307;DHT22;17935;51.120;13.132;2024-01-27T07:38:10;3.60;99.90
31307;DHT22;17935;51.120;13.132;2024-01-27T07:40:35;3.70;99.90
31307;DHT22;17935;51.120;13.132;2024-01-27T07:43:01;3.80;99.90
31307;DHT22;17935;51.120;13.132;2024-01-27T07:45:26;3.90;99.90
31307;DHT22;17935;51.120;13.132;2024-01-27T07:47:52;3.90;99.90
31307;DHT22;17935;51.120;13.132;2024-01-27T07:50:17;4.00;99.90
31307;DHT22;17935;51.120;13.132;2024-01-27T07:52:43;4.10;99.90
31307;DHT22;17935;51.120;13.132;2024-01-27T07:55:08;4.20;99.90
31307;DHT22;17935;51.120;13.132;2024-01-27T07:57:34;4.30;99.90
31307;DHT22;17935;51.120;13.132;2024-01-27T08:00:00;4.50;99.90
31307;DHT22;17935;51.120;13.132;2024-01-27T08:02:26;4.70;99.90
31307;DHT22;17935;51.120;13.132;2024-01-27T08:04:52;4.80;99.90
31307;DHT22;17935;51.120;13.132;2024-01-27T08:07:17;4.80;99.90
31307;DHT22;17935;51.120;13.132;2024-01-27T08:09:43;4.90;99.90
31307;DHT22;17935;51.120;13.132;2024-01-27T08:12:08;5.10;99.90
31307;DHT22;17935;51.120;13.132;2024-01-27T08:14:36;5.00;99.90
31307;DHT22;17935;51.120;13.132;2024-01-27T08:17:02;5.00;99.90
31307;DHT22;17935;51.120;13.132;2024-01-27T08:19:28;4.90;99.90
31307;DHT22;17935;51.120;13.132;2024-01-27T08:21:57;4.80;99.90
31307;DHT22;17935;51.120;13.132;2024-01-27T08:24:22;5.20;99.90
31307;DHT22;17935;51.120;13.132;2024-01-27T08:26:49;6.20;99.90
31307;DHT22;17935;51.120;13.132;2024-01-27T08:29:15;6.60;95.30
31307;DHT22;17935;51.120;13.132;2024-01-27T08:31:41;6.50;94.50
31307;DHT22;17935;51.120;13.132;2024-01-27T08:34:07;6.60;93.60
31307;DHT22;17935;51.120;13.132;2024-01-27T08:36:33;6.60;93.60
31307;DHT22;17935;51.120;13.132;2024-01-27T08:39:02;6.70;92.80
31307;DHT22;17935;51.120;13.132;2024-01-27T08:41:28;6.70;92.30
31307;DHT22;17935;51.120;13.132;2024-01-27T08:43:56;6.60;92.40
31307;DHT22;17935;51.120;13.132;2024-01-27T08:46:24;6.40;92.90
31307;DHT22;17935;51.120;13.132;2024-01-27T08:48:49;6.40;92.90
31307;DHT22;17935;51.120;13.132;2024-01-27T08:51:15;6.40;93.20
31307;DHT22;17935;51.120;13.132;2024-01-27T08:53:42;6.60;93.00
31307;DHT22;17935;51.120;13.132;2024-01-27T08:56:18;6.90;92.00
31307;DHT22;17935;51.120;13.132;2024-01-27T08:58:44;6.90;92.40
31307;DHT22;17935;51.120;13.132;2024-01-27T09:01:13;7.50;91.10
31307;DHT22;17935;51.120;13.132;2024-01-27T09:03:44;7.70;89.90
31307;DHT22;17935;51.120;13.132;2024-01-27T09:06:10;7.60;89.40
31307;DHT22;17935;51.120;13.132;2024-01-27T09:08:45;7.80;89.60
31307;DHT22;17935;51.120;13.132;2024-01-27T09:11:10;7.70;88.70
31307;DHT22;17935;51.120;13.132;2024-01-27T09:13:35;7.80;88.50
31307;DHT22;17935;51.120;13.132;2024-01-27T09:16:01;7.80;87.80
31307;DHT22;17935;51.120;13.132;2024-01-27T09:18:26;7.90;88.20
31307;DHT22;17935;51.120;13.132;2024-01-27T09:20:53;7.80;87.10
31307;DHT22;17935;51.120;13.132;2024-01-27T09:23:18;8.60;85.90
31307;DHT22;17935;51.120;13.132;2024-01-27T09:25:46;9.80;82.00
31307;DHT22;17935;51.120;13.132;2024-01-27T09:28:12;10.50;77.70
31307;DHT22;17935;51.120;13.132;2024-01-27T09:30:43;11.10;75.50
31307;DHT22;17935;51.120;13.132;2024-01-27T09:33:12;11.60;72.50
31307;DHT22;17935;51.120;13.132;2024-01-27T09:42:00;12.20;69.00
31307;DHT22;17935;51.120;13.132;2024-01-27T09:55:02;11.60;70.40
31307;DHT22;17935;51.120;13.132;2024-01-27T09:57:44;11.60;70.40
31307;DHT22;17935;51.120;13.132;2024-01-27T10:00:22;11.90;68.90
31307;DHT22;17935;51.120;13.132;2024-01-27T10:02:59;12.10;69.00
31307;DHT22;17935;51.120;13.132;2024-01-27T10:05:28;12.60;68.10
31307;DHT22;17935;51.120;13.132;2024-01-27T10:08:04;12.90;65.80
31307;DHT22;17935;51.120;13.132;2024-01-27T10:10:54;12.70;67.20
31307;DHT22;17935;51.120;13.132;2024-01-27T10:13:23;12.80;65.50
31307;DHT22;17935;51.120;13.132;2024-01-27T10:16:25;12.20;67.40
31307;DHT22;17935;51.120;13.132;2024-01-27T10:19:08;12.00;68.10
31307;DHT22;17935;51.120;13.132;2024-01-27T10:21:33;11.70;68.50
31307;DHT22;17935;51.120;13.132;2024-01-27T10:24:02;11.50;69.50
31307;DHT22;17935;51.120;13.132;2024-01-27T10:26:33;11.50;69.00
31307;DHT22;17935;51.120;13.132;2024-01-27T10:29:01;11.20;70.50
31307;DHT22;17935;51.120;13.132;2024-01-27T10:31:27;11.40;70.30
31307;DHT22;17935;51.120;13.132;2024-01-27T10:33:56;11.40;69.80
31307;DHT22;17935;51.120;13.132;2024-01-27T10:36:25;11.30;70.00
31307;DHT22;17935;51.120;13.132;2024-01-27T10:38:53;10.70;71.30
31307;DHT22;17935;51.120;13.132;2024-01-27T10:41:23;10.20;72.60
31307;DHT22;17935;51.120;13.132;2024-01-27T10:43:53;9.50;74.70
31307;DHT22;17935;51.120;13.132;2024-01-27T10:46:19;8.90;76.50
31307;DHT22;17935;51.120;13.132;2024-01-27T10:48:50;8.50;78.20
31307;DHT22;17935;51.120;13.132;2024-01-27T10:51:16;8.30;79.80
31307;DHT22;17935;51.120;13.132;2024-01-27T10:53:46;7.90;80.70
31307;DHT22;17935;51.120;13.132;2024-01-27T10:56:16;7.80;81.70
31307;DHT22;17935;51.120;13.132;2024-01-27T10:58:42;7.60;82.10
31307;DHT22;17935;51.120;13.132;2024-01-27T11:01:12;7.40;83.20
31307;DHT22;17935;51.120;13.132;2024-01-27T11:03:39;7.30;83.90
31307;DHT22;17935;51.120;13.132;2024-01-27T11:06:08;7.30;84.50
31307;DHT22;17935;51.120;13.132;2024-01-27T11:08:34;7.30;84.60
31307;DHT22;17935;51.120;13.132;2024-01-27T11:11:00;7.30;85.30
31307;DHT22;17935;51.120;13.132;2024-01-27T11:13:29;7.30;85.40
31307;DHT22;17935;51.120;13.132;2024-01-27T11:15:56;7.30;85.30
31307;DHT22;17935;51.120;13.132;2024-01-27T11:18:49;7.30;85.80
31307;DHT22;17935;51.120;13.132;2024-01-27T11:21:15;7.40;86.00
31307;DHT22;17935;51.120;13.132;2024-01-27T11:24:13;7.50;85.40
31307;DHT22;17935;51.120;13.132;2024-01-27T11:26:39;7.40;86.00
31307;DHT22;17935;51.120;13.132;2024-01-27T11:29:11;7.40;86.10
31307;DHT22;17935;51.120;13.132;2024-01-27T11:32:03;7.40;85.60
31307;DHT22;17935;51.120;13.132;2024-01-27T11:34:47;7.40;86.00
31307;DHT22;17935;51.120;13.132;2024-01-27T11:43:41;7.40;86.20
31307;DHT22;17935;51.120;13.132;2024-01-27T11:46:42;7.40;86.70
31307;DHT22;17935;51.120;13.132;2024-01-27T11:49:23;7.40;86.50
31307;DHT22;17935;51.120;13.132;2024-01-27T11:52:09;7.40;86.50
31307;DHT22;17935;51.120;13.132;2024-01-27T12:04:58;7.30;87.50
31307;DHT22;17935;51.120;13.132;2024-01-27T12:07:26;7.30;87.70
31307;DHT22;17935;51.120;13.132;2024-01-27T12:10:07;7.30;87.50
31307;DHT22;17935;51.120;13.132;2024-01-27T12:12:45;7.30;86.60
31307;DHT22;17935;51.120;13.132;2024-01-27T12:15:13;7.40;87.20
31307;DHT22;17935;51.120;13.132;2024-01-27T12:17:50;7.30;87.20
31307;DHT22;17935;51.120;13.132;2024-01-27T12:20:25;7.30;86.10
31307;DHT22;17935;51.120;13.132;2024-01-27T12:23:11;7.40;86.20
31307;DHT22;17935;51.120;13.132;2024-01-27T12:28:26;7.40;86.40
31307;DHT22;17935;51.120;13.132;2024-01-27T12:30:52;7.40;86.40
31307;DHT22;17935;51.120;13.132;2024-01-27T12:33:34;7.50;87.00
31307;DHT22;17935;51.120;13.132;2024-01-27T12:36:02;7.40;86.70
31307;DHT22;17935;51.120;13.132;2024-01-27T12:38:32;7.50;86.20
31307;DHT22;17935;51.120;13.132;2024-01-27T12:40:58;7.50;86.40
31307;DHT22;17935;51.120;13.132;2024-01-27T12:43:37;7.50;85.60
31307;DHT22;17935;51.120;13.132;2024-01-27T12:46:03;7.50;85.90
31307;DHT22;17935;51.120;13.132;2024-01-27T12:48:28;7.50;85.90
31307;DHT22;17935;51.120;13.132;2024-01-27T12:50:54;7.50;85.90
31307;DHT22;17935;51.120;13.132;2024-01-27T12:53:19;7.60;85.90
31307;DHT22;17935;51.120;13.132;2024-01-27T12:55:45;7.60;86.00
31307;DHT22;17935;51.120;13.132;2024-01-27T12:58:10;7.60;85.80
31307;DHT22;17935;51.120;13.132;2024-01-27T13:00:36;7.60;85.90
31307;DHT22;17935;51.120;13.132;2024-01-27T13:03:01;7.60;86.10
31307;DHT22;17935;51.120;13.132;2024-01-27T13:05:27;7.70;86.20
31307;DHT22;17935;51.120;13.132;2024-01-27T13:07:54;7.60;85.60
31307;DHT22;17935;51.120;13.132;2024-01-27T13:10:20;7.60;85.40
31307;DHT22;17935;51.120;13.132;2024-01-27T13:12:45;7.60;86.00
31307;DHT22;17935;51.120;13.132;2024-01-27T13:15:11;7.60;86.40
31307;DHT22;17935;51.120;13.132;2024-01-27T13:17:36;7.50;86.10
31307;DHT22;17935;51.120;13.132;2024-01-27T13:20:02;7.50;86.60
31307;DHT22;17935;51.120;13.132;2024-01-27T13:22:27;7.50;86.50
31307;DHT22;17935;51.120;13.132;2024-01-27T13:24:53;7.50;86.60
31307;DHT22;17935;51.120;13.132;2024-01-27T13:27:20;7.50;86.50
31307;DHT22;17935;51.120;13.132;2024-01-27T13:29:45;7.50;86.80
31307;DHT22;17935;51.120;13.132;2024-01-27T13:32:11;7.50;86.60
31307;DHT22;17935;51.120;13.132;2024-01-27T13:34:37;7.50;87.00
31307;DHT22;17935;51.120;13.132;2024-01-27T13:37:03;7.50;87.00
31307;DHT22;17935;51.120;13.132;2024-01-27T13:39:29;7.50;87.10
31307;DHT22;17935;51.120;13.132;2024-01-27T13:41:54;7.40;87.00
31307;DHT22;17935;51.120;13.132;2024-01-27T13:44:20;7.40;86.70
31307;DHT22;17935;51.120;13.132;2024-01-27T13:46:45;7.40;86.60
31307;DHT22;17935;51.120;13.132;2024-01-27T13:49:11;7.30;86.50
31307;DHT22;17935;51.120;13.132;2024-01-27T13:51:36;7.30;87.20
31307;DHT22;17935;51.120;13.132;2024-01-27T13:54:02;7.30;87.40
31307;DHT22;17935;51.120;13.132;2024-01-27T13:56:28;7.30;87.00
31307;DHT22;17935;51.120;13.132;2024-01-27T13:58:58;7.30;87.30
31307;DHT22;17935;51.120;13.132;2024-01-27T14:01:23;7.20;87.80
31307;DHT22;17935;51.120;13.132;2024-01-27T14:03:51;7.30;88.20
31307;DHT22;17935;51.120;13.132;2024-01-27T14:06:17;7.20;88.00
31307;DHT22;17935;51.120;13.132;2024-01-27T14:08:43;7.20;88.20
31307;DHT22;17935;51.120;13.132;2024-01-27T14:11:08;7.20;88.40
31307;DHT22;17935;51.120;13.132;2024-01-27T14:13:34;7.10;88.10
31307;DHT22;17935;51.120;13.132;2024-01-27T14:16:00;7.10;87.90
31307;DHT22;17935;51.120;13.132;2024-01-27T14:18:26;7.10;88.10
31307;DHT22;17935;51.120;13.132;2024-01-27T14:20:51;7.00;88.10
31307;DHT22;17935;51.120;13.132;2024-01-27T14:23:17;7.00;88.70
31307;DHT22;17935;51.120;13.132;2024-01-27T14:25:42;7.00;89.00
31307;DHT22;17935;51.120;13.132;2024-01-27T14:28:08;6.90;89.10
31307;DHT22;17935;51.120;13.132;2024-01-27T14:30:35;6.90;88.80
31307;DHT22;17935;51.120;13.132;2024-01-27T14:33:01;6.90;89.20
31307;DHT22;17935;51.120;13.132;2024-01-27T14:35:27;6.80;89.10
31307;DHT22;17935;51.120;13.132;2024-01-27T14:37:55;6.80;89.30
31307;DHT22;17935;51.120;13.132;2024-01-27T14:40:22;6.70;89.70
31307;DHT22;17935;51.120;13.132;2024-01-27T14:43:05;6.70;90.30
31307;DHT22;17935;51.120;13.132;2024-01-27T14:45:43;6.70;90.10
31307;DHT22;17935;51.120;13.132;2024-01-27T14:48:09;6.60;90.30
31307;DHT22;17935;51.120;13.132;2024-01-27T14:50:43;6.50;90.20
31307;DHT22;17935;51.120;13.132;2024-01-27T14:53:12;6.50;90.60
31307;DHT22;17935;51.120;13.132;2024-01-27T14:55:40;6.50;90.60
31307;DHT22;17935;51.120;13.132;2024-01-27T14:58:11;6.40;90.80
31307;DHT22;17935;51.120;13.132;2024-01-27T15:00:50;6.40;90.90
31307;DHT22;17935;51.120;13.132;2024-01-27T16:10:46;3.40;99.90
31307;DHT22;17935;51.120;13.132;2024-01-27T16:13:40;3.30;99.90
31307;DHT22;17935;51.120;13.132;2024-01-27T16:16:06;3.20;99.90
31307;DHT22;17935;51.120;13.132;2024-01-27T16:18:35;3.10;99.90
31307;DHT22;17935;51.120;13.132;2024-01-27T16:21:11;2.90;99.90
31307;DHT22;17935;51.120;13.132;2024-01-27T16:24:00;2.80;99.90
31307;DHT22;17935;51.120;13.132;2024-01-27T16:26:26;2.90;99.90
31307;DHT22;17935;51.120;13.132;2024-01-27T16:29:04;3.00;99.90
31307;DHT22;17935;51.120;13.132;2024-01-27T16:31:33;3.00;99.90
31307;DHT22;17935;51.120;13.132;2024-01-27T16:33:59;3.10;99.90
31307;DHT22;17935;51.120;13.132;2024-01-27T16:36:24;3.00;99.90
31307;DHT22;17935;51.120;13.132;2024-01-27T16:38:50;3.10;99.90
31307;DHT22;17935;51.120;13.132;2024-01-27T16:41:18;3.10;99.90
31307;DHT22;17935;51.120;13.132;2024-01-27T16:43:43;3.30;99.90
31307;DHT22;17935;51.120;13.132;2024-01-27T16:46:09;3.30;99.90
31307;DHT22;17935;51.120;13.132;2024-01-27T16:48:35;3.30;99.90
31307;DHT22;17935;51.120;13.132;2024-01-27T16:51:01;3.40;99.90
31307;DHT22;17935;51.120;13.132;2024-01-27T16:53:32;3.40;99.90
31307;DHT22;17935;51.120;13.132;2024-01-27T16:55:59;3.40;99.90
31307;DHT22;17935;51.120;13.132;2024-01-27T16:58:27;3.40;99.90
31307;DHT22;17935;51.120;13.132;2024-01-27T17:00:58;3.30;99.90
31307;DHT22;17935;51.120;13.132;2024-01-27T17:03:29;3.20;99.90
31307;DHT22;17935;51.120;13.132;2024-01-27T17:05:55;3.20;99.90
31307;DHT22;17935;51.120;13.132;2024-01-27T17:08:21;3.20;99.90
31307;DHT22;17935;51.120;13.132;2024-01-27T17:10:49;3.20;99.90
31307;DHT22;17935;51.120;13.132;2024-01-27T17:13:15;3.10;99.90
31307;DHT22;17935;51.120;13.132;2024-01-27T17:15:41;3.00;99.90